Time;durP1;ratioP1;P1;durP2;ratioP2;P2;SDS_P1;SDS_P2;PMS_P1;PMS_P2;Temp;Humidity;BMP_temperature;BMP_pressure;BME280_temperature;BME280_humidity;BME280_pressure;Samples;Min_cycle;Max_cycle;Signal;HPM_P1;HPM_P2
2021/04/21 00:00:51;;;;;;;7.50;5.68;;;;;;;;;;5051935;28;20198;-76
2021/04/21 00:03:17;;;;;;;8.15;7.35;;;;;;;;;;5051488;28;20188;-75
2021/04/21 00:05:43;;;;;;;10.32;8.32;;;;;;;;;;5051683;28;20263;-76
2021/04/21 00:08:09;;;;;;;8.38;5.70;;;;;;;;;;5051151;28;20194;-76
2021/04/21 00:10:36;;;;;;;13.25;6.75;;;;;;;;;;5048519;28;20280;-75
2021/04/21 00:13:02;;;;;;;6.72;6.03;;;;;;;;;;5047711;28;20665;-76
2021/04/21 00:15:28;;;;;;;8.00;6.22;;;;;;;;;;5051730;28;20228;-76
2021/04/21 00:17:58;;;;;;;8.18;7.25;;;;;;;;;;5050913;28;20282;-76
2021/04/21 00:20:24;;;;;;;8.32;4.97;;;;;;;;;;5054692;28;20220;-76
2021/04/21 00:22:55;;;;;;;9.88;8.55;;;;;;;;;;5039736;28;20186;-76
2021/04/21 00:25:22;;;;;;;8.77;6.50;;;;;;;;;;5058495;28;20182;-75
2021/04/21 00:27:50;;;;;;;7.30;6.45;;;;;;;;;;5049618;28;20576;-76
2021/04/21 00:30:16;;;;;;;7.28;6.40;;;;;;;;;;5059538;28;20179;-76
2021/04/21 00:32:46;;;;;;;8.57;7.80;;;;;;;;;;5070796;28;20232;-76
2021/04/21 00:35:13;;;;;;;14.35;8.05;;;;;;;;;;5052325;28;20182;-76
2021/04/21 00:37:41;;;;;;;7.60;6.90;;;;;;;;;;5047784;28;20191;-76
2021/04/21 00:40:09;;;;;;;6.70;4.95;;;;;;;;;;5036566;28;20275;-76
2021/04/21 00:42:45;;;;;;;8.75;5.95;;;;;;;;;;5052843;28;20182;-76
2021/04/21 00:45:15;;;;;;;7.55;5.63;;;;;;;;;;5055656;28;20626;-76
2021/04/21 00:48:02;;;;;;;7.25;5.40;;;;;;;;;;5055831;28;20174;-76
2021/04/21 00:50:46;;;;;;;8.30;6.80;;;;;;;;;;5038715;28;20218;-76
2021/04/21 00:53:17;;;;;;;10.23;7.55;;;;;;;;;;5052181;28;20235;-76
2021/04/21 00:55:55;;;;;;;6.85;6.10;;;;;;;;;;5064438;28;20261;-76
2021/04/21 00:58:21;;;;;;;11.90;6.70;;;;;;;;;;5056988;28;20186;-76
2021/04/21 01:00:47;;;;;;;6.83;5.90;;;;;;;;;;5068531;28;20206;-76
2021/04/21 01:03:16;;;;;;;6.50;5.75;;;;;;;;;;5073630;28;20422;-76
2021/04/21 01:05:44;;;;;;;6.90;5.55;;;;;;;;;;5063338;28;20204;-76
2021/04/21 01:08:14;;;;;;;5.80;4.65;;;;;;;;;;5054861;28;20290;-76
2021/04/21 01:10:55;;;;;;;7.53;6.60;;;;;;;;;;5053224;28;20724;-76
2021/04/21 01:13:22;;;;;;;7.82;7.03;;;;;;;;;;5053864;28;20280;-76
2021/04/21 01:15:50;;;;;;;6.53;5.80;;;;;;;;;;5054861;28;20211;-76
2021/04/21 01:18:17;;;;;;;6.20;5.68;;;;;;;;;;5057413;28;20182;-76
2021/04/21 01:20:46;;;;;;;7.18;5.93;;;;;;;;;;5066825;28;20365;-75
2021/04/21 01:23:21;;;;;;;9.25;7.80;;;;;;;;;;5035034;28;20164;-77
2021/04/21 01:26:04;;;;;;;6.32;5.22;;;;;;;;;;5041840;28;20230;-75
2021/04/21 01:28:31;;;;;;;9.95;5.70;;;;;;;;;;5052714;28;20785;-76
2021/04/21 01:30:58;;;;;;;10.20;7.05;;;;;;;;;;5068258;28;20195;-76
2021/04/21 01:33:24;;;;;;;10.77;8.27;;;;;;;;;;5070095;28;20167;-76
2021/04/21 01:36:00;;;;;;;8.48;5.85;;;;;;;;;;5054623;28;20188;-76
2021/04/21 01:38:27;;;;;;;9.48;8.52;;;;;;;;;;5052781;28;20185;-76
2021/04/21 01:40:56;;;;;;;13.05;8.00;;;;;;;;;;5052104;28;20247;-76
2021/04/21 01:43:24;;;;;;;7.63;6.10;;;;;;;;;;5052699;28;20279;-76
2021/04/21 01:45:52;;;;;;;13.02;8.85;;;;;;;;;;5054048;28;20711;-76
2021/04/21 01:48:19;;;;;;;8.88;6.15;;;;;;;;;;5054470;28;20185;-76
2021/04/21 01:50:46;;;;;;;9.50;6.63;;;;;;;;;;5053165;28;20201;-76
2021/04/21 01:53:27;;;;;;;7.70;6.53;;;;;;;;;;5054890;28;20212;-76
2021/04/21 01:56:02;;;;;;;8.10;7.30;;;;;;;;;;5057976;28;20198;-76
2021/04/21 01:58:48;;;;;;;7.22;6.47;;;;;;;;;;5052480;28;20190;-76
2021/04/21 02:01:32;;;;;;;5.57;5.00;;;;;;;;;;5053913;28;20704;-76
2021/04/21 02:04:14;;;;;;;8.45;7.15;;;;;;;;;;5053946;28;20186;-75
2021/04/21 02:06:46;;;;;;;6.93;6.15;;;;;;;;;;5044007;28;20303;-76
2021/04/21 02:09:12;;;;;;;6.55;5.55;;;;;;;;;;5053604;28;20181;-76
2021/04/21 02:11:40;;;;;;;8.63;4.97;;;;;;;;;;5051449;28;20205;-76
2021/04/21 02:14:06;;;;;;;7.35;5.65;;;;;;;;;;5042064;28;20446;-76
2021/04/21 02:16:45;;;;;;;6.70;6.07;;;;;;;;;;5053703;28;20178;-76
2021/04/21 02:19:23;;;;;;;8.40;6.18;;;;;;;;;;5053752;28;20425;-76
2021/04/21 02:21:59;;;;;;;9.75;8.07;;;;;;;;;;5051152;28;20219;-76
2021/04/21 02:24:37;;;;;;;6.90;6.03;;;;;;;;;;5067338;28;20181;-75
2021/04/21 02:27:09;;;;;;;9.82;6.18;;;;;;;;;;5061672;28;20199;-76
2021/04/21 02:29:46;;;;;;;7.75;6.95;;;;;;;;;;5061891;28;20228;-76
2021/04/21 02:32:18;;;;;;;11.02;7.22;;;;;;;;;;5053060;28;20198;-76
2021/04/21 02:34:56;;;;;;;13.23;8.18;;;;;;;;;;5058521;28;20815;-76
2021/04/21 02:37:31;;;;;;;6.97;5.43;;;;;;;;;;5067619;28;20204;-76
2021/04/21 02:40:13;;;;;;;8.10;7.30;;;;;;;;;;5058180;28;20229;-76
2021/04/21 02:42:39;;;;;;;9.65;7.28;;;;;;;;;;5059081;28;20193;-76
2021/04/21 02:45:18;;;;;;;11.70;8.70;;;;;;;;;;5062284;28;20797;-76
2021/04/21 02:47:54;;;;;;;8.35;6.75;;;;;;;;;;5074147;28;20463;-77
2021/04/21 02:50:23;;;;;;;8.18;5.63;;;;;;;;;;5053324;28;20185;-76
2021/04/21 02:53:08;;;;;;;8.07;6.63;;;;;;;;;;5046432;28;20675;-76
2021/04/21 02:55:37;;;;;;;11.00;7.38;;;;;;;;;;5052536;28;20554;-76
2021/04/21 02:58:11;;;;;;;9.75;7.38;;;;;;;;;;5046208;28;20316;-76
2021/04/21 03:00:42;;;;;;;10.68;6.70;;;;;;;;;;5051138;28;20714;-76
2021/04/21 03:03:20;;;;;;;8.95;6.35;;;;;;;;;;5056698;28;20241;-77
2021/04/21 03:05:49;;;;;;;7.88;5.60;;;;;;;;;;5065345;28;20208;-76
2021/04/21 03:08:21;;;;;;;6.65;5.95;;;;;;;;;;5053330;28;20681;-77
2021/04/21 03:10:49;;;;;;;7.07;6.35;;;;;;;;;;5051448;28;20280;-77
2021/04/21 03:13:19;;;;;;;9.40;7.70;;;;;;;;;;5055149;28;20220;-77
2021/04/21 03:15:49;;;;;;;8.05;6.95;;;;;;;;;;5056908;28;20196;-76
2021/04/21 03:18:19;;;;;;;8.35;7.45;;;;;;;;;;5055446;28;20268;-76
2021/04/21 03:21:11;;;;;;;8.55;6.32;;;;;;;;;;5066272;28;20532;-76
2021/04/21 03:23:39;;;;;;;8.60;7.70;;;;;;;;;;5047542;28;20739;-77
2021/04/21 03:26:07;;;;;;;8.93;6.72;;;;;;;;;;5046911;28;20215;-76
2021/04/21 03:28:34;;;;;;;8.68;6.55;;;;;;;;;;5055616;28;20609;-77
2021/04/21 03:31:01;;;;;;;5.95;5.35;;;;;;;;;;5058161;28;20628;-76
2021/04/21 03:33:33;;;;;;;7.13;6.53;;;;;;;;;;5056343;28;20186;-76
2021/04/21 03:36:00;;;;;;;9.50;8.60;;;;;;;;;;5058015;28;20189;-75
2021/04/21 03:38:26;;;;;;;9.65;7.75;;;;;;;;;;5052357;28;20801;-76
2021/04/21 03:40:52;;;;;;;8.57;6.53;;;;;;;;;;5050252;28;20204;-77
2021/04/21 03:43:19;;;;;;;10.68;7.20;;;;;;;;;;5047582;28;20192;-76
2021/04/21 03:45:49;;;;;;;11.07;9.98;;;;;;;;;;5066060;28;20189;-76
2021/04/21 03:48:16;;;;;;;10.35;8.98;;;;;;;;;;5052756;28;20215;-76
2021/04/21 03:50:43;;;;;;;10.93;7.75;;;;;;;;;;5051390;28;20709;-76
2021/04/21 03:53:10;;;;;;;10.18;6.65;;;;;;;;;;5051394;28;20267;-76
2021/04/21 03:55:37;;;;;;;7.28;6.57;;;;;;;;;;5033368;28;20182;-76
2021/04/21 03:58:17;;;;;;;10.57;6.78;;;;;;;;;;5050584;28;20236;-76
2021/04/21 04:00:45;;;;;;;7.80;5.70;;;;;;;;;;5047157;28;20203;-76
2021/04/21 04:03:12;;;;;;;9.98;6.43;;;;;;;;;;5051616;28;20182;-77
2021/04/21 04:05:46;;;;;;;8.73;6.68;;;;;;;;;;5051750;28;20205;-77
2021/04/21 04:08:13;;;;;;;7.95;7.25;;;;;;;;;;5055630;28;20199;-76
2021/04/21 04:10:41;;;;;;;9.00;7.03;;;;;;;;;;5058310;28;20205;-76
2021/04/21 04:13:10;;;;;;;10.70;7.95;;;;;;;;;;5048799;28;20184;-76
2021/04/21 04:15:37;;;;;;;10.45;8.25;;;;;;;;;;5051255;28;20179;-76
2021/04/21 04:18:04;;;;;;;10.57;8.70;;;;;;;;;;5050416;28;20187;-76
2021/04/21 04:20:31;;;;;;;10.50;8.45;;;;;;;;;;5043413;28;20555;-76
2021/04/21 04:22:57;;;;;;;9.52;7.65;;;;;;;;;;5051449;28;20229;-76
2021/04/21 04:25:23;;;;;;;7.90;6.75;;;;;;;;;;5050713;28;20196;-77
2021/04/21 04:27:50;;;;;;;10.63;8.02;;;;;;;;;;5049046;28;20640;-76
2021/04/21 04:30:16;;;;;;;9.43;6.25;;;;;;;;;;5051104;28;20676;-74
2021/04/21 04:32:43;;;;;;;6.95;6.28;;;;;;;;;;5051130;28;20299;-75
2021/04/21 04:35:10;;;;;;;8.38;6.22;;;;;;;;;;5050157;28;20715;-74
2021/04/21 04:37:40;;;;;;;11.02;6.43;;;;;;;;;;5051465;28;20183;-74
2021/04/21 04:40:10;;;;;;;9.07;7.22;;;;;;;;;;5062969;28;20168;-73
2021/04/21 04:42:37;;;;;;;8.63;7.43;;;;;;;;;;5048096;28;20185;-73
2021/04/21 04:45:04;;;;;;;7.78;6.35;;;;;;;;;;5051046;28;20187;-74
2021/04/21 04:47:31;;;;;;;10.13;7.10;;;;;;;;;;5051389;28;20259;-74
2021/04/21 04:50:10;;;;;;;8.85;6.28;;;;;;;;;;5051085;28;20209;-73
2021/04/21 04:52:40;;;;;;;8.57;7.40;;;;;;;;;;5031971;28;20658;-73
2021/04/21 04:55:08;;;;;;;7.10;6.40;;;;;;;;;;5050871;28;20260;-73
2021/04/21 04:57:34;;;;;;;6.45;5.75;;;;;;;;;;5051245;28;20256;-74
2021/04/21 05:00:07;;;;;;;7.27;6.53;;;;;;;;;;5048715;28;20332;-73
2021/04/21 05:02:35;;;;;;;8.60;6.22;;;;;;;;;;5038824;28;20508;-74
2021/04/21 05:05:08;;;;;;;9.32;6.25;;;;;;;;;;5048870;28;20203;-73
2021/04/21 05:07:47;;;;;;;8.63;6.70;;;;;;;;;;5042817;28;20587;-71
2021/04/21 05:10:26;;;;;;;11.05;7.28;;;;;;;;;;5062115;28;20169;-74
2021/04/21 05:12:53;;;;;;;7.20;6.15;;;;;;;;;;5039254;28;20178;-72
2021/04/21 05:15:46;;;;;;;8.23;6.53;;;;;;;;;;5050668;28;20183;-72
2021/04/21 05:18:24;;;;;;;9.07;6.35;;;;;;;;;;5033291;28;20257;-73
2021/04/21 05:21:02;;;;;;;7.50;6.75;;;;;;;;;;5037875;28;20214;-74
2021/04/21 05:23:47;;;;;;;7.97;6.57;;;;;;;;;;5050478;28;20184;-74
2021/04/21 05:26:22;;;;;;;8.27;6.72;;;;;;;;;;5053190;28;20221;-74
2021/04/21 05:29:07;;;;;;;11.30;8.05;;;;;;;;;;5054656;28;20173;-74
2021/04/21 05:31:35;;;;;;;10.02;8.13;;;;;;;;;;5054511;28;20602;-74
2021/04/21 05:34:23;;;;;;;9.10;7.38;;;;;;;;;;5053463;28;20178;-74
2021/04/21 05:36:58;;;;;;;10.45;6.85;;;;;;;;;;5054705;28;20173;-73
2021/04/21 05:39:53;;;;;;;13.05;6.85;;;;;;;;;;5068717;28;20180;-74
2021/04/21 05:42:36;;;;;;;9.02;8.05;;;;;;;;;;5071444;28;20201;-74
2021/04/21 05:45:17;;;;;;;10.80;7.63;;;;;;;;;;5054204;28;20616;-74
2021/04/21 05:48:02;;;;;;;11.93;9.20;;;;;;;;;;5054442;28;20604;-74
2021/04/21 05:50:31;;;;;;;11.10;8.63;;;;;;;;;;5054512;28;20193;-74
2021/04/21 05:52:57;;;;;;;10.38;8.80;;;;;;;;;;5054129;28;20520;-73
2021/04/21 05:55:42;;;;;;;12.60;9.60;;;;;;;;;;5053520;28;20183;-74
2021/04/21 05:58:27;;;;;;;14.85;11.30;;;;;;;;;;5051927;28;20449;-74
2021/04/21 06:00:55;;;;;;;14.20;9.85;;;;;;;;;;5053804;28;20200;-74
2021/04/21 06:03:23;;;;;;;9.50;7.28;;;;;;;;;;5050053;28;20174;-74
2021/04/21 06:05:49;;;;;;;14.60;10.77;;;;;;;;;;5034067;28;20251;-73
2021/04/21 06:08:15;;;;;;;12.17;10.50;;;;;;;;;;5043656;28;20569;-74
2021/04/21 06:10:41;;;;;;;15.40;11.77;;;;;;;;;;5073133;28;20942;-73
2021/04/21 06:13:07;;;;;;;13.98;9.35;;;;;;;;;;5058891;28;20423;-73
2021/04/21 06:15:35;;;;;;;13.07;9.95;;;;;;;;;;5053709;28;20170;-74
2021/04/21 06:18:02;;;;;;;16.83;9.70;;;;;;;;;;5054149;28;20170;-74
2021/04/21 06:20:32;;;;;;;11.80;9.63;;;;;;;;;;5035923;28;20205;-74
2021/04/21 06:23:03;;;;;;;10.63;8.98;;;;;;;;;;5035846;28;20178;-73
2021/04/21 06:25:29;;;;;;;13.13;9.65;;;;;;;;;;5052871;28;20585;-73
2021/04/21 06:28:08;;;;;;;17.67;11.87;;;;;;;;;;5053712;28;20268;-74
2021/04/21 06:30:35;;;;;;;13.43;9.77;;;;;;;;;;5053539;28;20451;-73
2021/04/21 06:33:02;;;;;;;12.20;10.73;;;;;;;;;;5052996;28;20178;-73
2021/04/21 06:35:31;;;;;;;13.30;11.63;;;;;;;;;;5053712;28;20201;-74
2021/04/21 06:37:58;;;;;;;14.20;11.32;;;;;;;;;;5055690;28;20252;-73
2021/04/21 06:40:25;;;;;;;14.38;11.50;;;;;;;;;;5073326;28;20234;-73
2021/04/21 06:42:51;;;;;;;14.88;11.65;;;;;;;;;;5066634;28;20186;-74
2021/04/21 06:45:31;;;;;;;17.38;12.48;;;;;;;;;;5052881;28;20319;-74
2021/04/21 06:47:58;;;;;;;17.38;12.35;;;;;;;;;;5052115;28;20551;-74
2021/04/21 06:50:28;;;;;;;13.77;12.43;;;;;;;;;;5052814;28;20170;-75
2021/04/21 06:52:58;;;;;;;16.30;11.98;;;;;;;;;;5052837;28;20178;-75
2021/04/21 06:55:25;;;;;;;16.02;12.02;;;;;;;;;;5052470;28;20705;-74
2021/04/21 06:57:51;;;;;;;18.92;12.65;;;;;;;;;;5051786;28;20177;-74
2021/04/21 07:00:18;;;;;;;17.70;13.52;;;;;;;;;;5040678;28;20244;-75
2021/04/21 07:02:50;;;;;;;14.95;10.50;;;;;;;;;;5052973;28;20174;-75
2021/04/21 07:05:26;;;;;;;12.55;9.55;;;;;;;;;;5041002;28;20170;-74
2021/04/21 07:07:59;;;;;;;17.67;13.57;;;;;;;;;;5036157;28;20205;-74
2021/04/21 07:10:25;;;;;;;13.45;10.52;;;;;;;;;;5072665;28;20177;-74
2021/04/21 07:12:51;;;;;;;19.17;12.52;;;;;;;;;;5060914;28;20174;-74
2021/04/21 07:15:19;;;;;;;19.55;11.40;;;;;;;;;;5052402;28;20223;-74
2021/04/21 07:17:45;;;;;;;17.35;12.57;;;;;;;;;;5052782;28;20198;-74
2021/04/21 07:20:13;;;;;;;12.97;11.03;;;;;;;;;;5052757;28;20212;-74
2021/04/21 07:22:39;;;;;;;14.93;11.63;;;;;;;;;;5052129;28;20427;-74
2021/04/21 07:25:05;;;;;;;16.90;12.07;;;;;;;;;;5051800;28;20181;-74
2021/04/21 07:27:31;;;;;;;19.48;13.23;;;;;;;;;;5051206;28;20475;-75
2021/04/21 07:29:58;;;;;;;16.40;11.25;;;;;;;;;;5052424;28;20172;-74
2021/04/21 07:32:25;;;;;;;17.02;12.88;;;;;;;;;;5052447;28;20224;-74
2021/04/21 07:34:58;;;;;;;14.43;11.20;;;;;;;;;;5052674;28;20297;-74
2021/04/21 07:37:35;;;;;;;15.88;11.75;;;;;;;;;;5052030;28;20302;-74
2021/04/21 07:40:01;;;;;;;15.82;12.73;;;;;;;;;;5064653;28;20674;-74
2021/04/21 07:42:27;;;;;;;17.70;12.70;;;;;;;;;;5067403;28;20205;-74
2021/04/21 07:44:55;;;;;;;21.17;12.47;;;;;;;;;;5052056;28;20406;-74
2021/04/21 07:47:22;;;;;;;16.13;12.65;;;;;;;;;;5062906;28;20463;-74
2021/04/21 07:49:58;;;;;;;16.08;12.63;;;;;;;;;;5071786;28;20256;-74
2021/04/21 07:52:26;;;;;;;17.75;12.55;;;;;;;;;;5071646;28;20188;-74
2021/04/21 07:55:21;;;;;;;13.23;11.32;;;;;;;;;;5072161;28;20197;-74
2021/04/21 07:58:07;;;;;;;19.80;12.88;;;;;;;;;;5036637;28;20190;-74
2021/04/21 08:00:33;;;;;;;17.63;12.60;;;;;;;;;;5031865;28;20244;-73
2021/04/21 08:03:00;;;;;;;18.88;12.35;;;;;;;;;;5040235;28;20218;-73
2021/04/21 08:05:27;;;;;;;21.65;12.43;;;;;;;;;;5051065;28;20174;-74
2021/04/21 08:07:54;;;;;;;17.98;12.40;;;;;;;;;;5052079;28;20173;-74
2021/04/21 08:10:28;;;;;;;15.65;10.40;;;;;;;;;;5051750;28;20177;-74
2021/04/21 08:12:56;;;;;;;19.23;14.00;;;;;;;;;;5050650;28;20212;-74
2021/04/21 08:15:29;;;;;;;15.02;12.05;;;;;;;;;;5051409;28;20725;-74
2021/04/21 08:17:56;;;;;;;22.88;12.68;;;;;;;;;;5068092;28;20177;-74
2021/04/21 08:20:33;;;;;;;22.55;13.30;;;;;;;;;;5071361;28;20648;-74
2021/04/21 08:23:06;;;;;;;14.82;12.30;;;;;;;;;;5065712;28;20181;-73
2021/04/21 08:25:32;;;;;;;15.05;11.85;;;;;;;;;;5033455;28;20184;-73
2021/04/21 08:27:59;;;;;;;12.43;11.13;;;;;;;;;;5051336;28;20182;-74
2021/04/21 08:30:26;;;;;;;15.23;9.55;;;;;;;;;;5051332;28;20401;-73
2021/04/21 08:32:52;;;;;;;16.40;11.55;;;;;;;;;;5049798;28;20185;-73
2021/04/21 08:35:19;;;;;;;15.80;12.20;;;;;;;;;;5049671;28;20178;-74
2021/04/21 08:37:45;;;;;;;18.02;11.40;;;;;;;;;;5049562;28;20416;-73
2021/04/21 08:40:12;;;;;;;15.13;10.15;;;;;;;;;;5049253;28;20181;-73
2021/04/21 08:42:39;;;;;;;18.00;13.55;;;;;;;;;;5049245;28;20234;-73
2021/04/21 08:45:07;;;;;;;17.08;12.02;;;;;;;;;;5049317;28;20264;-74
2021/04/21 08:47:34;;;;;;;14.85;11.10;;;;;;;;;;5062670;28;20277;-74
2021/04/21 08:50:00;;;;;;;18.73;12.70;;;;;;;;;;5071367;28;20200;-74
2021/04/21 08:52:28;;;;;;;15.40;12.10;;;;;;;;;;5055680;28;20201;-73
2021/04/21 08:54:54;;;;;;;16.15;12.27;;;;;;;;;;5051160;28;20175;-73
2021/04/21 08:57:21;;;;;;;17.23;11.38;;;;;;;;;;5049101;28;20187;-73
2021/04/21 08:59:47;;;;;;;15.57;11.38;;;;;;;;;;5049791;28;20187;-75
2021/04/21 09:02:15;;;;;;;16.47;11.90;;;;;;;;;;5054252;28;20202;-73
2021/04/21 09:04:41;;;;;;;13.02;11.45;;;;;;;;;;5048734;28;20425;-73
2021/04/21 09:07:07;;;;;;;13.05;11.23;;;;;;;;;;5052730;28;20202;-73
2021/04/21 09:09:34;;;;;;;17.43;12.77;;;;;;;;;;5053765;28;20711;-74
2021/04/21 09:12:01;;;;;;;16.98;11.95;;;;;;;;;;5053662;28;20949;-74
2021/04/21 09:14:27;;;;;;;17.33;13.00;;;;;;;;;;5053193;28;20182;-74
2021/04/21 09:16:53;;;;;;;15.73;12.00;;;;;;;;;;5061298;28;20396;-74
2021/04/21 09:19:19;;;;;;;14.40;10.77;;;;;;;;;;5074173;28;20417;-75
2021/04/21 09:21:45;;;;;;;16.97;12.73;;;;;;;;;;5059344;28;20239;-74
2021/04/21 09:24:12;;;;;;;14.50;10.87;;;;;;;;;;5054721;28;20742;-75
2021/04/21 09:26:38;;;;;;;18.33;11.80;;;;;;;;;;5054881;28;20439;-75
2021/04/21 09:29:04;;;;;;;18.67;12.70;;;;;;;;;;5049696;28;20703;-75
2021/04/21 09:31:31;;;;;;;16.07;11.80;;;;;;;;;;5054244;28;20439;-74
2021/04/21 09:34:09;;;;;;;16.73;13.70;;;;;;;;;;5054739;28;20411;-75
2021/04/21 09:36:36;;;;;;;16.97;13.33;;;;;;;;;;5073342;28;20423;-74
2021/04/21 09:39:13;;;;;;;15.40;11.83;;;;;;;;;;5074688;28;20413;-75
2021/04/21 09:41:40;;;;;;;15.73;11.80;;;;;;;;;;5066835;28;20949;-74
2021/04/21 09:44:12;;;;;;;18.00;13.03;;;;;;;;;;5054052;28;20433;-74
2021/04/21 09:46:41;;;;;;;14.40;11.67;;;;;;;;;;5057767;28;20548;-74
2021/04/21 09:49:25;;;;;;;16.00;12.60;;;;;;;;;;5074322;28;20410;-74
2021/04/21 09:51:51;;;;;;;19.27;14.87;;;;;;;;;;5071485;28;20444;-75
2021/04/21 09:54:27;;;;;;;13.90;11.27;;;;;;;;;;5054062;28;21084;-75
2021/04/21 09:57:05;;;;;;;15.90;10.83;;;;;;;;;;5053988;28;20422;-75
2021/04/21 09:59:31;;;;;;;19.50;12.37;;;;;;;;;;5053648;28;20747;-74
2021/04/21 10:01:57;;;;;;;14.90;12.47;;;;;;;;;;5054153;28;20420;-74
2021/04/21 10:04:27;;;;;;;16.00;11.93;;;;;;;;;;5054729;28;20404;-75
2021/04/21 10:06:54;;;;;;;20.23;14.13;;;;;;;;;;5054254;28;20478;-75
2021/04/21 10:09:31;;;;;;;17.70;12.27;;;;;;;;;;5054229;28;20782;-75
2021/04/21 10:12:17;;;;;;;13.87;11.80;;;;;;;;;;5052351;28;20814;-72
2021/04/21 10:14:44;;;;;;;15.80;12.53;;;;;;;;;;5045030;28;20526;-73
2021/04/21 10:17:10;;;;;;;14.07;10.57;;;;;;;;;;5057383;28;20412;-72
2021/04/21 10:19:36;;;;;;;15.43;10.77;;;;;;;;;;5071548;28;20407;-72
2021/04/21 10:22:03;;;;;;;12.50;10.90;;;;;;;;;;5052877;28;20462;-73
2021/04/21 10:24:29;;;;;;;13.93;11.20;;;;;;;;;;5053669;28;20399;-72
2021/04/21 10:26:56;;;;;;;15.50;11.23;;;;;;;;;;5053684;28;20455;-73
2021/04/21 10:29:25;;;;;;;12.53;10.83;;;;;;;;;;5054316;28;20415;-73
2021/04/21 10:31:55;;;;;;;14.33;11.77;;;;;;;;;;5055382;28;20419;-72
2021/04/21 10:34:21;;;;;;;11.40;10.30;;;;;;;;;;5073447;28;20467;-72
2021/04/21 10:36:51;;;;;;;12.00;9.67;;;;;;;;;;5050597;28;20428;-73
2021/04/21 10:39:30;;;;;;;12.90;10.57;;;;;;;;;;5043745;28;20453;-72
2021/04/21 10:42:12;;;;;;;11.03;9.30;;;;;;;;;;5067229;28;20971;-73
2021/04/21 10:44:43;;;;;;;12.20;9.90;;;;;;;;;;5052061;28;20435;-73
2021/04/21 10:47:10;;;;;;;13.37;11.17;;;;;;;;;;5053271;28;20459;-72
2021/04/21 10:49:49;;;;;;;13.67;11.70;;;;;;;;;;5049905;28;20434;-72
2021/04/21 10:52:16;;;;;;;13.83;10.83;;;;;;;;;;5060041;28;20798;-72
2021/04/21 10:54:43;;;;;;;11.83;9.70;;;;;;;;;;5052775;28;20408;-72
2021/04/21 10:57:21;;;;;;;10.77;8.80;;;;;;;;;;5069161;28;21009;-73
2021/04/21 11:00:03;;;;;;;17.00;12.40;;;;;;;;;;5032875;28;20808;-72
2021/04/21 11:02:44;;;;;;;14.10;11.40;;;;;;;;;;5034745;28;20480;-72
2021/04/21 11:05:10;;;;;;;12.60;9.53;;;;;;;;;;5067199;28;20428;-72
2021/04/21 11:07:37;;;;;;;11.23;10.10;;;;;;;;;;5071671;28;20475;-73
2021/04/21 11:10:05;;;;;;;12.93;10.83;;;;;;;;;;5072789;28;20541;-73
2021/04/21 11:12:50;;;;;;;9.70;8.50;;;;;;;;;;5061367;28;20519;-72
2021/04/21 11:15:35;;;;;;;13.60;9.97;;;;;;;;;;5052373;28;20477;-73
2021/04/21 11:18:08;;;;;;;10.73;9.10;;;;;;;;;;5052863;28;20453;-72
2021/04/21 11:20:46;;;;;;;12.90;10.43;;;;;;;;;;5052491;28;20434;-73
2021/04/21 11:23:30;;;;;;;11.67;10.07;;;;;;;;;;5118271;22;20484;-77
2021/04/21 11:26:15;;;;;;;10.70;8.60;;;;;;;;;;5100604;28;20456;-77
2021/04/21 11:29:00;;;;;;;14.20;9.07;;;;;;;;;;5111000;28;20521;-77
2021/04/21 11:31:48;;;;;;;8.43;7.63;;;;;;;;;;5114132;27;20416;-77
2021/04/21 11:34:14;;;;;;;9.53;8.63;;;;;;;;;;5079388;28;20961;-78
2021/04/21 11:36:47;;;;;;;11.27;7.40;;;;;;;;;;5096111;28;20440;-78
2021/04/21 11:39:13;;;;;;;8.30;6.50;;;;;;;;;;5093813;28;20816;-77
2021/04/21 11:41:40;;;;;;;7.47;6.77;;;;;;;;;;5094001;28;20429;-77
2021/04/21 11:44:08;;;;;;;7.00;6.40;;;;;;;;;;5093867;28;20485;-77
2021/04/21 11:46:52;;;;;;;7.37;6.77;;;;;;;;;;5094067;28;20450;-77
2021/04/21 11:49:37;;;;;;;5.30;4.80;;;;;;;;;;5095411;28;20422;-78
2021/04/21 11:52:03;;;;;;;5.90;5.30;;;;;;;;;;5099322;28;20461;-77
2021/04/21 11:54:29;;;;;;;6.50;5.90;;;;;;;;;;5100851;28;20440;-77
2021/04/21 11:56:58;;;;;;;6.03;5.53;;;;;;;;;;5113863;28;20892;-77
2021/04/21 11:59:25;;;;;;;7.50;6.70;;;;;;;;;;5106230;27;20416;-77
2021/04/21 12:01:51;;;;;;;5.80;5.30;;;;;;;;;;5098287;27;20451;-77
2021/04/21 12:04:18;;;;;;;8.43;5.93;;;;;;;;;;5133806;27;20496;-77
2021/04/21 12:06:44;;;;;;;4.83;4.53;;;;;;;;;;5134371;27;20529;-77
2021/04/21 12:09:10;;;;;;;5.70;4.60;;;;;;;;;;5133494;27;20423;-76
2021/04/21 12:11:36;;;;;;;7.10;5.53;;;;;;;;;;5133534;27;20430;-77
2021/04/21 12:14:03;;;;;;;6.10;5.50;;;;;;;;;;5134682;27;20411;-77
2021/04/21 12:16:29;;;;;;;5.77;5.30;;;;;;;;;;5134311;27;20755;-77
2021/04/21 12:18:56;;;;;;;5.10;4.70;;;;;;;;;;5135461;27;20454;-77
2021/04/21 12:21:24;;;;;;;4.70;4.40;;;;;;;;;;5131953;27;20415;-77
2021/04/21 12:23:51;;;;;;;4.77;4.37;;;;;;;;;;5113007;28;20946;-77
2021/04/21 12:26:19;;;;;;;4.57;4.20;;;;;;;;;;5114582;28;21008;-77
2021/04/21 12:28:52;;;;;;;5.13;4.73;;;;;;;;;;5110004;28;20421;-77
2021/04/21 12:31:20;;;;;;;4.10;3.80;;;;;;;;;;5095464;28;20785;-77
2021/04/21 12:33:46;;;;;;;4.50;4.20;;;;;;;;;;5091937;28;20452;-76
2021/04/21 12:36:12;;;;;;;4.10;3.73;;;;;;;;;;5092667;28;20934;-77
2021/04/21 12:38:39;;;;;;;4.97;4.57;;;;;;;;;;5094385;28;20437;-77
2021/04/21 12:41:06;;;;;;;4.20;3.90;;;;;;;;;;5100519;28;20471;-77
2021/04/21 12:43:35;;;;;;;4.60;4.30;;;;;;;;;;5092053;28;20402;-76
2021/04/21 12:46:12;;;;;;;5.73;4.90;;;;;;;;;;5111721;28;20814;-77
2021/04/21 12:48:46;;;;;;;4.80;4.40;;;;;;;;;;5121566;28;20427;-77
2021/04/21 12:51:17;;;;;;;4.57;4.17;;;;;;;;;;5132774;28;20408;-75
2021/04/21 12:53:43;;;;;;;4.77;4.37;;;;;;;;;;5123354;28;20408;-76
2021/04/21 12:56:13;;;;;;;5.10;4.70;;;;;;;;;;5130989;28;20461;-75
2021/04/21 12:58:41;;;;;;;4.87;4.50;;;;;;;;;;5112262;28;20934;-76
2021/04/21 13:01:27;;;;;;;4.60;4.07;;;;;;;;;;5102086;28;20480;-75
2021/04/21 13:03:57;;;;;;;6.07;5.50;;;;;;;;;;5101941;28;20431;-76
2021/04/21 13:06:33;;;;;;;5.83;5.37;;;;;;;;;;5091588;28;20446;-76
2021/04/21 13:09:03;;;;;;;5.40;5.00;;;;;;;;;;5073468;28;20474;-76
2021/04/21 13:11:32;;;;;;;5.10;4.73;;;;;;;;;;5091130;28;20422;-76
2021/04/21 13:13:58;;;;;;;4.77;4.37;;;;;;;;;;5090824;28;20400;-76
2021/04/21 13:16:28;;;;;;;4.30;4.00;;;;;;;;;;5090827;28;20418;-76
2021/04/21 13:18:54;;;;;;;4.70;4.30;;;;;;;;;;5091518;28;20416;-76
2021/04/21 13:21:21;;;;;;;4.60;4.20;;;;;;;;;;5091230;28;20412;-76
2021/04/21 13:23:53;;;;;;;3.50;3.20;;;;;;;;;;5098505;28;20417;-77
2021/04/21 13:26:20;;;;;;;4.13;3.83;;;;;;;;;;5132136;28;20448;-75
2021/04/21 13:28:50;;;;;;;4.37;4.07;;;;;;;;;;5132439;28;20419;-76
2021/04/21 13:31:22;;;;;;;3.77;3.50;;;;;;;;;;5132327;28;20399;-76
2021/04/21 13:33:48;;;;;;;3.47;3.27;;;;;;;;;;5109498;28;20532;-76
2021/04/21 13:36:16;;;;;;;3.80;3.60;;;;;;;;;;5102542;28;21000;-76
2021/04/21 13:38:42;;;;;;;4.07;3.77;;;;;;;;;;5091285;28;20412;-75
2021/04/21 13:41:09;;;;;;;3.70;3.37;;;;;;;;;;5105491;28;20411;-76
2021/04/21 13:43:35;;;;;;;4.10;3.80;;;;;;;;;;5111325;28;20412;-76
2021/04/21 13:46:01;;;;;;;3.70;3.40;;;;;;;;;;5107695;28;21025;-76
2021/04/21 13:48:27;;;;;;;3.40;3.10;;;;;;;;;;5130479;27;20409;-76
2021/04/21 13:50:53;;;;;;;3.77;3.47;;;;;;;;;;5136211;27;20403;-76
2021/04/21 13:53:20;;;;;;;3.90;3.60;;;;;;;;;;5120468;27;20433;-76
2021/04/21 13:55:46;;;;;;;4.60;4.20;;;;;;;;;;5115073;28;20402;-76
2021/04/21 13:58:12;;;;;;;5.63;4.60;;;;;;;;;;5115103;28;20401;-77
2021/04/21 14:00:38;;;;;;;4.90;4.50;;;;;;;;;;5113663;28;20452;-77
2021/04/21 14:03:05;;;;;;;4.30;4.00;;;;;;;;;;5124564;27;20474;-76
2021/04/21 14:05:35;;;;;;;5.97;5.47;;;;;;;;;;5135490;27;20412;-77
2021/04/21 14:08:02;;;;;;;5.70;5.20;;;;;;;;;;5103574;27;20509;-76
2021/04/21 14:10:28;;;;;;;5.10;4.70;;;;;;;;;;5093083;28;20977;-76
2021/04/21 14:12:54;;;;;;;5.43;4.90;;;;;;;;;;5094130;28;20913;-77
2021/04/21 14:15:21;;;;;;;5.20;4.80;;;;;;;;;;5094404;28;20901;-76
2021/04/21 14:17:47;;;;;;;5.97;5.47;;;;;;;;;;5094199;28;20464;-76
2021/04/21 14:20:14;;;;;;;6.27;5.07;;;;;;;;;;5094421;28;20411;-76
2021/04/21 14:22:42;;;;;;;6.00;5.53;;;;;;;;;;5093858;28;20452;-76
2021/04/21 14:25:08;;;;;;;7.23;5.97;;;;;;;;;;5094253;28;20421;-76
2021/04/21 14:27:34;;;;;;;5.00;4.60;;;;;;;;;;5093768;28;20418;-77
2021/04/21 14:30:00;;;;;;;5.43;4.93;;;;;;;;;;5093986;28;20498;-76
2021/04/21 14:32:27;;;;;;;5.50;5.00;;;;;;;;;;5110967;27;20467;-76
2021/04/21 14:34:53;;;;;;;6.30;5.30;;;;;;;;;;5127688;27;20468;-76
2021/04/21 14:37:19;;;;;;;5.80;5.30;;;;;;;;;;5128362;27;20492;-76
2021/04/21 14:39:45;;;;;;;5.97;5.47;;;;;;;;;;5113259;28;20405;-76
2021/04/21 14:42:11;;;;;;;5.33;4.83;;;;;;;;;;5124435;27;20428;-76
2021/04/21 14:44:37;;;;;;;6.30;5.80;;;;;;;;;;5134679;27;20416;-76
2021/04/21 14:47:03;;;;;;;5.73;5.20;;;;;;;;;;5134733;27;20863;-74
2021/04/21 14:49:29;;;;;;;7.37;6.67;;;;;;;;;;5128007;27;20418;-73
2021/04/21 14:51:55;;;;;;;6.40;5.80;;;;;;;;;;5113576;28;20436;-74